createdAt,value
2019-04-28T00:01:21.244Z,4.23
2019-04-28T00:06:15.966Z,4.77
2019-04-28T00:11:11.707Z,6.20
2019-04-28T00:16:07.847Z,6.23
2019-04-28T00:21:27.687Z,5.20
2019-04-28T00:26:37.173Z,8.67
2019-04-28T00:31:35.044Z,6.13
2019-04-28T00:36:31.266Z,6.10
2019-04-28T00:41:26.218Z,7.33
2019-04-28T00:46:24.254Z,7.47
2019-04-28T00:51:19.013Z,7.40
2019-04-28T00:56:13.802Z,7.83
2019-04-28T01:01:11.556Z,8.20
2019-04-28T01:06:06.309Z,11.10
2019-04-28T01:11:01.797Z,7.20
2019-04-28T01:16:05.926Z,8.23
2019-04-28T01:21:00.634Z,9.53
2019-04-28T01:25:55.841Z,9.37
2019-04-28T01:31:04.797Z,5.50
2019-04-28T01:36:00.458Z,8.17
2019-04-28T01:40:55.293Z,13.57
2019-04-28T01:45:50.281Z,10.60
2019-04-28T01:50:45.022Z,11.47
2019-04-28T01:55:41.152Z,9.73
2019-04-28T02:00:36.357Z,10.77
2019-04-28T02:05:31.089Z,11.17
2019-04-28T02:10:27.959Z,11.70
2019-04-28T02:15:23.092Z,7.53
2019-04-28T02:20:20.151Z,11.07
2019-04-28T02:25:15.683Z,11.03
2019-04-28T02:30:11.688Z,14.23
2019-04-28T02:35:12.704Z,11.57
2019-04-28T02:40:10.353Z,13.40
2019-04-28T02:45:04.172Z,17.70
2019-04-28T02:50:08.197Z,12.57
2019-04-28T02:55:03.795Z,10.57
2019-04-28T03:00:00.464Z,12.87
2019-04-28T03:04:54.999Z,8.97
2019-04-28T03:09:55.699Z,10.60
2019-04-28T03:14:50.919Z,11.27
2019-04-28T03:19:45.836Z,13.83
2019-04-28T03:24:41.468Z,15.97
2019-04-28T03:29:40.900Z,15.97
2019-04-28T03:34:44.262Z,11.47
2019-04-28T03:39:40.522Z,10.87
2019-04-28T03:44:35.432Z,10.87
2019-04-28T03:49:34.580Z,8.10
2019-04-28T03:54:30.360Z,12.17
2019-04-28T03:59:25.244Z,11.67
2019-04-28T04:04:21.301Z,10.00
2019-04-28T04:09:16.300Z,9.93
2019-04-28T04:14:30.975Z,14.23
2019-04-28T04:19:25.947Z,13.53
2019-04-28T04:24:20.707Z,13.60
2019-04-28T04:29:15.425Z,7.90
2019-04-28T04:34:10.779Z,7.07
2019-04-28T04:39:07.421Z,11.97
2019-04-28T04:44:02.394Z,11.80
2019-04-28T04:48:57.146Z,12.27
2019-04-28T04:53:51.956Z,10.90
2019-04-28T04:58:46.769Z,12.90
2019-04-28T05:03:43.248Z,7.30
2019-04-28T05:08:39.868Z,10.50
2019-04-28T05:13:34.887Z,10.97
2019-04-28T05:18:29.815Z,9.57
2019-04-28T05:23:51.048Z,8.87
2019-04-28T05:28:51.400Z,9.00
2019-04-28T05:33:42.232Z,12.27
2019-04-28T05:38:36.877Z,9.90
2019-04-28T05:43:32.060Z,10.00
2019-04-28T05:48:44.838Z,13.13
2019-04-28T05:53:44.677Z,8.30
2019-04-28T05:59:01.988Z,9.37
2019-04-28T06:03:56.708Z,13.73
2019-04-28T06:08:59.702Z,13.60
2019-04-28T06:13:54.194Z,9.30
2019-04-28T06:18:50.059Z,9.57
2019-04-28T06:23:44.912Z,7.37
2019-04-28T06:28:39.649Z,10.47
2019-04-28T06:33:34.733Z,8.43
2019-04-28T06:38:29.474Z,12.23
2019-04-28T06:43:24.222Z,13.20
2019-04-28T06:48:18.944Z,11.37
2019-04-28T06:53:13.839Z,12.23
2019-04-28T06:58:08.581Z,9.87
2019-04-28T07:03:03.331Z,10.50
2019-04-28T07:07:58.054Z,10.90
2019-04-28T07:12:52.813Z,11.57
2019-04-28T07:17:47.558Z,10.27
2019-04-28T07:22:42.400Z,8.90
2019-04-28T07:27:37.122Z,8.23
2019-04-28T07:32:31.933Z,7.67
2019-04-28T07:37:27.691Z,12.47
2019-04-28T07:42:22.455Z,11.83
2019-04-28T07:47:17.208Z,8.53
2019-04-28T07:52:37.230Z,7.73
2019-04-28T07:57:31.952Z,8.17
2019-04-28T08:02:26.863Z,10.27
2019-04-28T08:07:21.587Z,11.20
2019-04-28T08:12:16.312Z,10.70
2019-04-28T08:17:11.044Z,8.20
2019-04-28T08:22:05.773Z,10.03
2019-04-28T08:27:00.511Z,8.40
2019-04-28T08:32:05.975Z,12.90
2019-04-28T08:37:00.701Z,8.03
2019-04-28T08:41:55.480Z,8.63
2019-04-28T08:46:50.211Z,7.20
2019-04-28T08:51:44.951Z,7.23
2019-04-28T08:56:42.746Z,9.70
2019-04-28T09:01:37.546Z,12.30
2019-04-28T09:06:32.275Z,8.33
2019-04-28T09:11:27.184Z,7.10
2019-04-28T09:16:21.935Z,8.60
2019-04-28T09:21:16.669Z,9.73
2019-04-28T09:26:12.259Z,9.20
2019-04-28T09:31:08.036Z,8.50
2019-04-28T09:36:03.117Z,9.43
2019-04-28T09:40:57.844Z,9.60
2019-04-28T09:45:55.350Z,9.20
2019-04-28T09:50:50.149Z,11.93
2019-04-28T09:55:44.894Z,8.13
2019-04-28T10:00:40.688Z,8.77
2019-04-28T10:05:35.425Z,6.90
2019-04-28T10:10:30.250Z,7.60
2019-04-28T10:15:25.047Z,5.83
2019-04-28T10:20:19.964Z,12.73
2019-04-28T10:25:16.071Z,6.77
2019-04-28T10:30:12.181Z,8.33
2019-04-28T10:35:08.192Z,7.27
2019-04-28T10:40:08.846Z,6.87
2019-04-28T10:45:05.493Z,8.93
2019-04-28T10:50:00.311Z,10.13
2019-04-28T10:54:55.068Z,11.33
2019-04-28T10:59:49.815Z,9.17
2019-04-28T11:05:09.477Z,8.20
2019-04-28T11:10:09.855Z,10.70
2019-04-28T11:15:06.657Z,8.20
2019-04-28T11:20:03.520Z,5.77
2019-04-28T11:24:58.273Z,5.73
2019-04-28T11:29:53.016Z,7.27
2019-04-28T11:35:23.556Z,7.93
2019-04-28T11:40:18.341Z,9.47
2019-04-28T11:45:13.223Z,6.87
2019-04-28T11:50:08.732Z,8.50
2019-04-28T11:55:03.551Z,6.10
2019-04-28T11:59:59.366Z,4.83
2019-04-28T12:04:55.749Z,7.43
2019-04-28T12:10:04.407Z,7.40
2019-04-28T12:15:04.569Z,3.90
2019-04-28T12:20:15.610Z,8.77
2019-04-28T12:25:10.631Z,7.27
2019-04-28T12:30:05.566Z,6.43
2019-04-28T12:35:00.306Z,4.33
2019-04-28T12:39:55.051Z,3.27
2019-04-28T12:44:49.785Z,3.90
2019-04-28T12:49:51.180Z,6.53
2019-04-28T12:54:45.927Z,7.83
2019-04-28T12:59:46.018Z,4.27
2019-04-28T13:04:44.578Z,5.13
2019-04-28T13:09:39.400Z,6.13
2019-04-28T13:14:34.175Z,4.33
2019-04-28T13:19:28.941Z,3.83
2019-04-28T13:24:23.758Z,4.37
2019-04-28T13:29:18.492Z,5.40
2019-04-28T13:34:15.125Z,6.73
2019-04-28T13:39:13.634Z,4.50
2019-04-28T13:44:10.100Z,3.93
2019-04-28T13:49:06.680Z,5.47
2019-04-28T13:54:03.185Z,5.13
2019-04-28T13:59:03.336Z,5.37
2019-04-28T14:04:19.995Z,5.17
2019-04-28T14:09:20.751Z,3.23
2019-04-28T14:14:15.511Z,4.03
2019-04-28T14:19:10.512Z,4.10
2019-04-28T14:24:05.335Z,4.97
2019-04-28T14:29:00.079Z,6.60
2019-04-28T14:33:55.093Z,3.17
2019-04-28T14:38:49.849Z,5.63
2019-04-28T14:43:44.655Z,2.20
2019-04-28T14:48:39.416Z,4.33
2019-04-28T14:53:34.146Z,4.03
2019-04-28T14:58:28.937Z,3.33
2019-04-28T15:03:24.888Z,3.30
2019-04-28T15:08:53.878Z,4.23
2019-04-28T15:13:48.567Z,4.63
2019-04-28T15:18:43.307Z,5.07
2019-04-28T15:23:38.018Z,2.90
2019-04-28T15:28:32.756Z,5.10
2019-04-28T15:33:27.484Z,3.53
2019-04-28T15:38:22.228Z,2.77
2019-04-28T15:43:16.988Z,4.10
2019-04-28T15:48:11.763Z,3.27
2019-04-28T15:53:06.510Z,3.73
2019-04-28T15:58:20.258Z,3.30
2019-04-28T16:03:15.245Z,5.90
2019-04-28T16:08:09.974Z,3.20
2019-04-28T16:13:04.725Z,5.40
2019-04-28T16:17:59.459Z,2.40
2019-04-28T16:22:54.192Z,3.80
2019-04-28T16:27:49.208Z,3.40
2019-04-28T16:32:43.934Z,8.10
2019-04-28T16:37:39.347Z,3.47
2019-04-28T16:42:34.071Z,2.53
2019-04-28T16:47:29.055Z,3.70
2019-04-28T16:52:23.799Z,4.47
2019-04-28T16:57:30.233Z,4.67
2019-04-28T17:02:30.635Z,2.50
2019-04-28T17:07:27.092Z,5.93
2019-04-28T17:12:23.847Z,3.93
2019-04-28T17:17:20.904Z,4.17
2019-04-28T17:22:15.706Z,2.77
2019-04-28T17:27:10.438Z,4.57
2019-04-28T17:32:05.254Z,5.90
2019-04-28T17:37:00.086Z,3.37
2019-04-28T17:41:57.933Z,4.63
2019-04-28T17:46:52.663Z,4.57
2019-04-28T17:51:47.418Z,7.33
2019-04-28T17:56:42.152Z,4.70
2019-04-28T18:01:49.609Z,7.80
2019-04-28T18:06:48.177Z,6.30
2019-04-28T18:11:43.009Z,4.33
2019-04-28T18:16:57.975Z,4.67
2019-04-28T18:21:52.733Z,4.53
2019-04-28T18:26:47.541Z,11.37
2019-04-28T18:32:02.759Z,5.27
2019-04-28T18:37:16.610Z,4.70
2019-04-28T18:42:22.905Z,4.80
2019-04-28T18:47:17.646Z,3.50
2019-04-28T18:52:12.459Z,3.50
2019-04-28T18:57:07.271Z,5.07
2019-04-28T19:02:16.319Z,4.43
2019-04-28T19:07:13.604Z,3.67
2019-04-28T19:12:24.324Z,5.93
2019-04-28T19:17:40.535Z,5.10
2019-04-28T19:22:44.420Z,4.57
2019-04-28T19:27:39.185Z,4.97
2019-04-28T19:32:33.915Z,4.77
2019-04-28T19:37:28.724Z,7.47
2019-04-28T19:42:23.470Z,5.17
2019-04-28T19:47:18.304Z,6.03
2019-04-28T19:52:13.128Z,6.83
2019-04-28T19:57:27.139Z,6.10
2019-04-28T20:02:22.508Z,4.47
2019-04-28T20:07:17.379Z,5.47
2019-04-28T20:12:12.352Z,3.93
2019-04-28T20:17:07.175Z,4.70
2019-04-28T20:22:02.093Z,3.53
2019-04-28T20:26:56.929Z,5.00
2019-04-28T20:31:51.789Z,9.07
2019-04-28T20:36:58.639Z,7.27
2019-04-28T20:41:53.542Z,5.83
2019-04-28T20:46:48.480Z,7.10
2019-04-28T20:51:43.426Z,6.53
2019-04-28T20:56:38.410Z,8.03
2019-04-28T21:01:33.317Z,6.73
2019-04-28T21:06:28.182Z,4.23
2019-04-28T21:11:23.264Z,4.23
2019-04-28T21:16:18.191Z,7.43
2019-04-28T21:21:13.097Z,5.50
2019-04-28T21:26:08.052Z,5.50
2019-04-28T21:31:03.035Z,5.23
2019-04-28T21:35:59.393Z,5.00
2019-04-28T21:40:54.337Z,5.87
2019-04-28T21:45:56.347Z,4.43
2019-04-28T21:50:51.186Z,5.43
2019-04-28T21:55:46.054Z,4.40
2019-04-28T22:00:49.853Z,5.60
2019-04-28T22:05:44.762Z,6.00
2019-04-28T22:10:39.581Z,6.53
2019-04-28T22:15:34.426Z,7.43
2019-04-28T22:20:29.292Z,4.93
2019-04-28T22:25:24.717Z,4.80
2019-04-28T22:30:19.708Z,4.80
2019-04-28T22:35:15.544Z,3.40
2019-04-28T22:40:10.788Z,5.30
2019-04-28T22:45:06.155Z,4.87
2019-04-28T22:50:01.046Z,4.43
2019-04-28T22:55:14.998Z,4.50
2019-04-28T23:00:31.763Z,3.70
2019-04-28T23:05:26.767Z,3.57
2019-04-28T23:10:21.749Z,5.50
2019-04-28T23:15:16.772Z,9.90
2019-04-28T23:20:14.287Z,4.00
2019-04-28T23:25:09.220Z,4.53
2019-04-28T23:30:05.003Z,3.87
2019-04-28T23:34:59.876Z,3.57
2019-04-28T23:39:54.766Z,3.83
2019-04-28T23:44:49.604Z,5.03
2019-04-28T23:49:44.459Z,5.33
2019-04-28T23:54:41.003Z,7.17
2019-04-28T23:59:35.878Z,3.50
